sensor_id;sensor_type;location;lat;lon;timestamp;P1;durP1;ratioP1;P2;durP2;ratioP2
76894;SDS011;65855;42.030;13.078;2023-05-10T00:02:07;11.32;;;4.82;;
76894;SDS011;65855;42.030;13.078;2023-05-10T00:04:32;8.98;;;4.35;;
76894;SDS011;65855;42.030;13.078;2023-05-10T00:06:58;9.43;;;4.68;;
76894;SDS011;65855;42.030;13.078;2023-05-10T00:09:23;9.20;;;4.05;;
76894;SDS011;65855;42.030;13.078;2023-05-10T00:11:49;9.88;;;4.28;;
76894;SDS011;65855;42.030;13.078;2023-05-10T00:14:14;7.78;;;3.67;;
76894;SDS011;65855;42.030;13.078;2023-05-10T00:16:39;9.30;;;3.90;;
76894;SDS011;65855;42.030;13.078;2023-05-10T00:19:05;10.15;;;4.15;;
76894;SDS011;65855;42.030;13.078;2023-05-10T00:21:31;11.82;;;5.00;;
76894;SDS011;65855;42.030;13.078;2023-05-10T00:23:57;9.48;;;4.10;;
76894;SDS011;65855;42.030;13.078;2023-05-10T00:26:22;8.90;;;3.70;;
76894;SDS011;65855;42.030;13.078;2023-05-10T00:28:48;8.48;;;4.13;;
76894;SDS011;65855;42.030;13.078;2023-05-10T00:31:13;8.63;;;4.28;;
76894;SDS011;65855;42.030;13.078;2023-05-10T00:33:39;10.48;;;3.88;;
76894;SDS011;65855;42.030;13.078;2023-05-10T00:36:05;8.65;;;3.97;;
76894;SDS011;65855;42.030;13.078;2023-05-10T00:38:32;9.73;;;3.90;;
76894;SDS011;65855;42.030;13.078;2023-05-10T00:40:58;10.05;;;4.43;;
76894;SDS011;65855;42.030;13.078;2023-05-10T00:43:23;9.63;;;4.57;;
76894;SDS011;65855;42.030;13.078;2023-05-10T00:45:49;9.50;;;5.03;;
76894;SDS011;65855;42.030;13.078;2023-05-10T00:48:15;9.68;;;4.88;;
76894;SDS011;65855;42.030;13.078;2023-05-10T00:50:40;8.63;;;3.85;;
76894;SDS011;65855;42.030;13.078;2023-05-10T00:53:06;10.10;;;4.90;;
76894;SDS011;65855;42.030;13.078;2023-05-10T00:55:32;13.02;;;5.53;;
76894;SDS011;65855;42.030;13.078;2023-05-10T00:57:58;9.60;;;3.30;;
76894;SDS011;65855;42.030;13.078;2023-05-10T01:00:23;12.35;;;5.18;;
76894;SDS011;65855;42.030;13.078;2023-05-10T01:02:49;8.30;;;3.72;;
76894;SDS011;65855;42.030;13.078;2023-05-10T01:05:15;10.18;;;4.90;;
76894;SDS011;65855;42.030;13.078;2023-05-10T01:07:40;9.45;;;4.30;;
76894;SDS011;65855;42.030;13.078;2023-05-10T01:10:06;9.68;;;4.70;;
76894;SDS011;65855;42.030;13.078;2023-05-10T01:12:36;9.60;;;4.88;;
76894;SDS011;65855;42.030;13.078;2023-05-10T01:15:05;8.68;;;4.45;;
76894;SDS011;65855;42.030;13.078;2023-05-10T01:17:33;9.65;;;4.57;;
76894;SDS011;65855;42.030;13.078;2023-05-10T01:20:00;9.80;;;4.30;;
76894;SDS011;65855;42.030;13.078;2023-05-10T01:25:22;12.30;;;5.40;;
76894;SDS011;65855;42.030;13.078;2023-05-10T01:33:29;10.93;;;4.43;;
76894;SDS011;65855;42.030;13.078;2023-05-10T01:38:42;9.80;;;4.13;;
76894;SDS011;65855;42.030;13.078;2023-05-10T01:41:11;11.88;;;4.28;;
76894;SDS011;65855;42.030;13.078;2023-05-10T01:43:53;10.23;;;4.72;;
76894;SDS011;65855;42.030;13.078;2023-05-10T01:46:26;8.10;;;4.30;;
76894;SDS011;65855;42.030;13.078;2023-05-10T01:48:56;9.38;;;4.53;;
76894;SDS011;65855;42.030;13.078;2023-05-10T01:51:24;10.05;;;4.45;;
76894;SDS011;65855;42.030;13.078;2023-05-10T01:53:54;11.70;;;5.35;;
76894;SDS011;65855;42.030;13.078;2023-05-10T01:56:25;11.50;;;5.35;;
76894;SDS011;65855;42.030;13.078;2023-05-10T01:58:52;11.38;;;5.63;;
76894;SDS011;65855;42.030;13.078;2023-05-10T02:01:20;11.43;;;5.38;;
76894;SDS011;65855;42.030;13.078;2023-05-10T02:03:46;11.57;;;5.60;;
76894;SDS011;65855;42.030;13.078;2023-05-10T02:06:13;13.88;;;5.30;;
76894;SDS011;65855;42.030;13.078;2023-05-10T02:08:41;11.80;;;5.25;;
76894;SDS011;65855;42.030;13.078;2023-05-10T02:11:07;11.25;;;5.28;;
76894;SDS011;65855;42.030;13.078;2023-05-10T02:13:36;12.52;;;5.53;;
76894;SDS011;65855;42.030;13.078;2023-05-10T02:16:04;10.35;;;6.10;;
76894;SDS011;65855;42.030;13.078;2023-05-10T02:18:30;14.68;;;5.28;;
76894;SDS011;65855;42.030;13.078;2023-05-10T02:20:57;10.35;;;4.50;;
76894;SDS011;65855;42.030;13.078;2023-05-10T02:23:25;15.52;;;5.50;;
76894;SDS011;65855;42.030;13.078;2023-05-10T02:25:51;9.38;;;4.50;;
76894;SDS011;65855;42.030;13.078;2023-05-10T02:28:18;12.38;;;5.78;;
76894;SDS011;65855;42.030;13.078;2023-05-10T02:30:44;12.23;;;5.90;;
76894;SDS011;65855;42.030;13.078;2023-05-10T02:33:12;12.02;;;5.38;;
76894;SDS011;65855;42.030;13.078;2023-05-10T02:35:39;15.35;;;6.20;;
76894;SDS011;65855;42.030;13.078;2023-05-10T02:38:05;11.77;;;6.53;;
76894;SDS011;65855;42.030;13.078;2023-05-10T02:40:32;11.02;;;5.80;;
76894;SDS011;65855;42.030;13.078;2023-05-10T02:42:59;11.68;;;5.78;;
76894;SDS011;65855;42.030;13.078;2023-05-10T02:45:27;11.13;;;4.57;;
76894;SDS011;65855;42.030;13.078;2023-05-10T02:47:56;11.25;;;5.82;;
76894;SDS011;65855;42.030;13.078;2023-05-10T02:50:21;12.05;;;5.22;;
76894;SDS011;65855;42.030;13.078;2023-05-10T02:52:51;12.00;;;5.80;;
76894;SDS011;65855;42.030;13.078;2023-05-10T02:55:22;10.68;;;5.25;;
76894;SDS011;65855;42.030;13.078;2023-05-10T02:57:53;10.70;;;5.10;;
76894;SDS011;65855;42.030;13.078;2023-05-10T03:00:22;10.75;;;5.18;;
76894;SDS011;65855;42.030;13.078;2023-05-10T03:02:47;11.23;;;5.10;;
76894;SDS011;65855;42.030;13.078;2023-05-10T03:05:13;10.45;;;5.03;;
76894;SDS011;65855;42.030;13.078;2023-05-10T03:07:38;11.27;;;4.90;;
76894;SDS011;65855;42.030;13.078;2023-05-10T03:10:04;12.15;;;5.03;;
76894;SDS011;65855;42.030;13.078;2023-05-10T03:18:22;9.88;;;4.38;;
76894;SDS011;65855;42.030;13.078;2023-05-10T03:20:56;10.32;;;5.93;;
76894;SDS011;65855;42.030;13.078;2023-05-10T03:23:27;10.65;;;4.93;;
76894;SDS011;65855;42.030;13.078;2023-05-10T03:25:54;9.88;;;4.53;;
76894;SDS011;65855;42.030;13.078;2023-05-10T03:28:20;11.07;;;4.93;;
76894;SDS011;65855;42.030;13.078;2023-05-10T03:30:47;9.35;;;4.70;;
76894;SDS011;65855;42.030;13.078;2023-05-10T03:33:13;10.52;;;5.13;;
76894;SDS011;65855;42.030;13.078;2023-05-10T03:35:39;10.23;;;4.57;;
76894;SDS011;65855;42.030;13.078;2023-05-10T03:38:04;9.07;;;4.50;;
76894;SDS011;65855;42.030;13.078;2023-05-10T03:40:30;10.20;;;4.72;;
76894;SDS011;65855;42.030;13.078;2023-05-10T03:42:57;9.70;;;4.90;;
76894;SDS011;65855;42.030;13.078;2023-05-10T03:45:23;10.23;;;4.88;;
76894;SDS011;65855;42.030;13.078;2023-05-10T03:47:48;17.52;;;8.00;;
76894;SDS011;65855;42.030;13.078;2023-05-10T03:50:14;30.10;;;10.93;;
76894;SDS011;65855;42.030;13.078;2023-05-10T03:52:39;8.63;;;4.53;;
76894;SDS011;65855;42.030;13.078;2023-05-10T03:55:05;14.73;;;4.78;;
76894;SDS011;65855;42.030;13.078;2023-05-10T03:57:31;12.13;;;4.88;;
76894;SDS011;65855;42.030;13.078;2023-05-10T03:59:56;11.18;;;4.70;;
76894;SDS011;65855;42.030;13.078;2023-05-10T04:02:22;10.57;;;4.57;;
76894;SDS011;65855;42.030;13.078;2023-05-10T04:04:47;10.85;;;5.28;;
76894;SDS011;65855;42.030;13.078;2023-05-10T04:07:13;11.35;;;5.22;;
76894;SDS011;65855;42.030;13.078;2023-05-10T04:09:39;9.32;;;5.18;;
76894;SDS011;65855;42.030;13.078;2023-05-10T04:12:04;11.93;;;5.03;;
76894;SDS011;65855;42.030;13.078;2023-05-10T04:14:30;9.68;;;4.15;;
76894;SDS011;65855;42.030;13.078;2023-05-10T04:16:56;8.60;;;3.95;;
76894;SDS011;65855;42.030;13.078;2023-05-10T04:19:21;9.35;;;4.28;;
76894;SDS011;65855;42.030;13.078;2023-05-10T04:21:47;10.55;;;4.97;;
76894;SDS011;65855;42.030;13.078;2023-05-10T04:24:12;10.30;;;4.15;;
76894;SDS011;65855;42.030;13.078;2023-05-10T04:26:37;10.38;;;4.00;;
76894;SDS011;65855;42.030;13.078;2023-05-10T04:29:03;9.45;;;4.50;;
76894;SDS011;65855;42.030;13.078;2023-05-10T04:31:28;9.57;;;4.95;;
76894;SDS011;65855;42.030;13.078;2023-05-10T04:33:53;6.90;;;3.50;;
76894;SDS011;65855;42.030;13.078;2023-05-10T04:36:19;10.38;;;4.63;;
76894;SDS011;65855;42.030;13.078;2023-05-10T04:38:44;8.60;;;4.45;;
76894;SDS011;65855;42.030;13.078;2023-05-10T04:41:10;10.70;;;4.57;;
76894;SDS011;65855;42.030;13.078;2023-05-10T04:43:36;9.65;;;4.35;;
76894;SDS011;65855;42.030;13.078;2023-05-10T04:46:02;12.10;;;4.82;;
76894;SDS011;65855;42.030;13.078;2023-05-10T04:48:28;10.65;;;3.90;;
76894;SDS011;65855;42.030;13.078;2023-05-10T04:50:53;10.70;;;4.55;;
76894;SDS011;65855;42.030;13.078;2023-05-10T04:53:19;9.95;;;3.90;;
76894;SDS011;65855;42.030;13.078;2023-05-10T04:55:44;11.48;;;5.18;;
76894;SDS011;65855;42.030;13.078;2023-05-10T04:58:10;10.45;;;4.40;;
76894;SDS011;65855;42.030;13.078;2023-05-10T05:00:35;9.95;;;5.15;;
76894;SDS011;65855;42.030;13.078;2023-05-10T05:03:01;10.85;;;6.00;;
76894;SDS011;65855;42.030;13.078;2023-05-10T05:05:26;11.73;;;4.57;;
76894;SDS011;65855;42.030;13.078;2023-05-10T05:07:52;9.38;;;4.00;;
76894;SDS011;65855;42.030;13.078;2023-05-10T05:10:17;9.98;;;4.82;;
76894;SDS011;65855;42.030;13.078;2023-05-10T05:12:42;10.13;;;4.22;;
76894;SDS011;65855;42.030;13.078;2023-05-10T05:15:08;10.32;;;4.70;;
76894;SDS011;65855;42.030;13.078;2023-05-10T05:17:34;12.75;;;4.75;;
76894;SDS011;65855;42.030;13.078;2023-05-10T05:20:00;9.05;;;4.57;;
76894;SDS011;65855;42.030;13.078;2023-05-10T05:22:26;10.48;;;5.25;;
76894;SDS011;65855;42.030;13.078;2023-05-10T05:24:56;10.57;;;5.07;;
76894;SDS011;65855;42.030;13.078;2023-05-10T05:27:23;13.15;;;5.18;;
76894;SDS011;65855;42.030;13.078;2023-05-10T05:29:52;9.45;;;4.57;;
76894;SDS011;65855;42.030;13.078;2023-05-10T05:32:18;8.52;;;4.00;;
76894;SDS011;65855;42.030;13.078;2023-05-10T05:34:44;10.00;;;4.60;;
76894;SDS011;65855;42.030;13.078;2023-05-10T05:37:14;10.00;;;4.35;;
76894;SDS011;65855;42.030;13.078;2023-05-10T05:39:40;8.73;;;4.10;;
76894;SDS011;65855;42.030;13.078;2023-05-10T05:42:06;10.20;;;4.85;;
76894;SDS011;65855;42.030;13.078;2023-05-10T05:44:31;8.93;;;4.45;;
76894;SDS011;65855;42.030;13.078;2023-05-10T05:46:57;10.45;;;4.72;;
76894;SDS011;65855;42.030;13.078;2023-05-10T05:49:22;8.95;;;4.70;;
76894;SDS011;65855;42.030;13.078;2023-05-10T05:51:47;9.57;;;4.63;;
76894;SDS011;65855;42.030;13.078;2023-05-10T05:54:15;11.07;;;4.90;;
76894;SDS011;65855;42.030;13.078;2023-05-10T05:56:40;10.73;;;4.43;;
76894;SDS011;65855;42.030;13.078;2023-05-10T05:59:06;10.18;;;4.25;;
76894;SDS011;65855;42.030;13.078;2023-05-10T06:01:31;11.52;;;4.15;;
76894;SDS011;65855;42.030;13.078;2023-05-10T06:03:56;9.30;;;4.55;;
76894;SDS011;65855;42.030;13.078;2023-05-10T06:06:22;12.00;;;4.88;;
76894;SDS011;65855;42.030;13.078;2023-05-10T06:08:47;8.95;;;4.45;;
76894;SDS011;65855;42.030;13.078;2023-05-10T06:11:13;8.73;;;3.85;;
76894;SDS011;65855;42.030;13.078;2023-05-10T06:13:38;9.75;;;4.45;;
76894;SDS011;65855;42.030;13.078;2023-05-10T06:16:03;10.00;;;4.13;;
76894;SDS011;65855;42.030;13.078;2023-05-10T06:18:29;8.27;;;4.00;;
76894;SDS011;65855;42.030;13.078;2023-05-10T06:20:55;9.60;;;3.40;;
76894;SDS011;65855;42.030;13.078;2023-05-10T06:23:20;7.22;;;2.90;;
76894;SDS011;65855;42.030;13.078;2023-05-10T06:25:47;8.52;;;3.90;;
76894;SDS011;65855;42.030;13.078;2023-05-10T06:28:12;7.82;;;3.42;;
76894;SDS011;65855;42.030;13.078;2023-05-10T06:30:38;9.15;;;4.55;;
76894;SDS011;65855;42.030;13.078;2023-05-10T06:33:03;10.68;;;4.32;;
76894;SDS011;65855;42.030;13.078;2023-05-10T06:35:28;8.18;;;4.18;;
76894;SDS011;65855;42.030;13.078;2023-05-10T06:37:54;10.85;;;4.40;;
76894;SDS011;65855;42.030;13.078;2023-05-10T06:40:20;8.23;;;4.68;;
76894;SDS011;65855;42.030;13.078;2023-05-10T06:42:46;9.45;;;4.28;;
76894;SDS011;65855;42.030;13.078;2023-05-10T06:45:12;8.25;;;3.60;;
76894;SDS011;65855;42.030;13.078;2023-05-10T06:47:39;9.18;;;4.20;;
76894;SDS011;65855;42.030;13.078;2023-05-10T06:50:05;10.50;;;4.40;;
76894;SDS011;65855;42.030;13.078;2023-05-10T06:52:31;10.63;;;4.45;;
76894;SDS011;65855;42.030;13.078;2023-05-10T06:54:57;14.68;;;4.63;;
76894;SDS011;65855;42.030;13.078;2023-05-10T06:57:22;8.30;;;3.53;;
76894;SDS011;65855;42.030;13.078;2023-05-10T06:59:48;12.07;;;3.80;;
76894;SDS011;65855;42.030;13.078;2023-05-10T07:02:13;10.65;;;3.83;;
76894;SDS011;65855;42.030;13.078;2023-05-10T07:04:40;9.60;;;3.75;;
76894;SDS011;65855;42.030;13.078;2023-05-10T07:07:05;8.35;;;4.47;;
76894;SDS011;65855;42.030;13.078;2023-05-10T07:09:30;7.45;;;3.85;;
76894;SDS011;65855;42.030;13.078;2023-05-10T07:11:56;8.25;;;3.58;;
76894;SDS011;65855;42.030;13.078;2023-05-10T07:14:22;7.97;;;3.80;;
76894;SDS011;65855;42.030;13.078;2023-05-10T07:16:48;8.43;;;3.70;;
76894;SDS011;65855;42.030;13.078;2023-05-10T07:19:13;8.68;;;3.92;;
76894;SDS011;65855;42.030;13.078;2023-05-10T07:21:39;10.40;;;4.03;;
76894;SDS011;65855;42.030;13.078;2023-05-10T07:24:07;7.93;;;4.40;;
76894;SDS011;65855;42.030;13.078;2023-05-10T07:26:33;8.00;;;3.78;;
76894;SDS011;65855;42.030;13.078;2023-05-10T07:28:58;7.50;;;3.33;;
76894;SDS011;65855;42.030;13.078;2023-05-10T07:31:23;7.95;;;3.78;;
76894;SDS011;65855;42.030;13.078;2023-05-10T07:33:49;8.75;;;4.72;;
76894;SDS011;65855;42.030;13.078;2023-05-10T07:36:14;10.00;;;4.18;;
76894;SDS011;65855;42.030;13.078;2023-05-10T07:38:40;7.85;;;3.95;;
76894;SDS011;65855;42.030;13.078;2023-05-10T07:41:05;8.27;;;3.65;;
76894;SDS011;65855;42.030;13.078;2023-05-10T07:43:31;8.60;;;3.70;;
76894;SDS011;65855;42.030;13.078;2023-05-10T07:45:56;7.65;;;3.67;;
76894;SDS011;65855;42.030;13.078;2023-05-10T07:48:22;8.65;;;3.65;;
76894;SDS011;65855;42.030;13.078;2023-05-10T07:50:48;7.53;;;3.33;;
76894;SDS011;65855;42.030;13.078;2023-05-10T07:53:13;7.88;;;3.22;;
76894;SDS011;65855;42.030;13.078;2023-05-10T07:55:39;8.77;;;3.67;;
76894;SDS011;65855;42.030;13.078;2023-05-10T07:58:04;8.23;;;3.33;;
76894;SDS011;65855;42.030;13.078;2023-05-10T08:00:30;8.40;;;3.75;;
76894;SDS011;65855;42.030;13.078;2023-05-10T08:02:55;7.70;;;3.22;;
76894;SDS011;65855;42.030;13.078;2023-05-10T08:05:21;7.55;;;3.30;;
76894;SDS011;65855;42.030;13.078;2023-05-10T08:07:46;9.10;;;3.53;;
76894;SDS011;65855;42.030;13.078;2023-05-10T08:10:12;7.28;;;2.90;;
76894;SDS011;65855;42.030;13.078;2023-05-10T08:12:37;6.82;;;2.97;;
76894;SDS011;65855;42.030;13.078;2023-05-10T08:15:03;7.20;;;3.53;;
76894;SDS011;65855;42.030;13.078;2023-05-10T08:17:29;7.63;;;3.50;;
76894;SDS011;65855;42.030;13.078;2023-05-10T08:19:55;10.35;;;4.10;;
76894;SDS011;65855;42.030;13.078;2023-05-10T08:22:20;9.13;;;4.55;;
76894;SDS011;65855;42.030;13.078;2023-05-10T08:24:46;7.40;;;3.40;;
76894;SDS011;65855;42.030;13.078;2023-05-10T08:27:11;8.80;;;3.58;;
76894;SDS011;65855;42.030;13.078;2023-05-10T08:29:37;8.68;;;4.03;;
76894;SDS011;65855;42.030;13.078;2023-05-10T08:32:03;9.77;;;4.30;;
76894;SDS011;65855;42.030;13.078;2023-05-10T08:34:28;8.13;;;4.05;;
76894;SDS011;65855;42.030;13.078;2023-05-10T08:36:56;10.40;;;4.13;;
76894;SDS011;65855;42.030;13.078;2023-05-10T08:39:21;9.88;;;4.85;;
76894;SDS011;65855;42.030;13.078;2023-05-10T08:41:46;9.50;;;4.47;;
76894;SDS011;65855;42.030;13.078;2023-05-10T08:44:13;12.15;;;4.90;;
76894;SDS011;65855;42.030;13.078;2023-05-10T08:46:40;8.18;;;3.70;;
76894;SDS011;65855;42.030;13.078;2023-05-10T08:49:09;8.73;;;4.47;;
76894;SDS011;65855;42.030;13.078;2023-05-10T08:51:39;7.80;;;4.35;;
76894;SDS011;65855;42.030;13.078;2023-05-10T08:54:08;8.30;;;3.35;;
76894;SDS011;65855;42.030;13.078;2023-05-10T08:56:34;7.57;;;3.38;;
76894;SDS011;65855;42.030;13.078;2023-05-10T08:59:00;8.45;;;3.65;;
76894;SDS011;65855;42.030;13.078;2023-05-10T09:01:26;7.55;;;3.17;;
76894;SDS011;65855;42.030;13.078;2023-05-10T09:03:52;7.00;;;2.97;;
76894;SDS011;65855;42.030;13.078;2023-05-10T09:06:18;7.78;;;3.40;;
76894;SDS011;65855;42.030;13.078;2023-05-10T09:08:43;8.20;;;3.60;;
76894;SDS011;65855;42.030;13.078;2023-05-10T09:11:11;6.97;;;3.00;;
76894;SDS011;65855;42.030;13.078;2023-05-10T09:13:37;7.25;;;2.88;;
76894;SDS011;65855;42.030;13.078;2023-05-10T09:16:03;7.47;;;3.38;;
76894;SDS011;65855;42.030;13.078;2023-05-10T09:18:29;9.27;;;3.78;;
76894;SDS011;65855;42.030;13.078;2023-05-10T09:20:55;6.85;;;2.92;;
76894;SDS011;65855;42.030;13.078;2023-05-10T09:23:20;8.65;;;3.63;;
76894;SDS011;65855;42.030;13.078;2023-05-10T09:25:46;8.43;;;3.65;;
76894;SDS011;65855;42.030;13.078;2023-05-10T09:28:11;9.10;;;3.67;;
76894;SDS011;65855;42.030;13.078;2023-05-10T09:30:37;8.75;;;3.60;;
76894;SDS011;65855;42.030;13.078;2023-05-10T09:33:03;8.23;;;3.15;;
76894;SDS011;65855;42.030;13.078;2023-05-10T09:35:30;9.13;;;3.75;;
76894;SDS011;65855;42.030;13.078;2023-05-10T09:37:58;9.10;;;3.53;;
76894;SDS011;65855;42.030;13.078;2023-05-10T09:40:30;8.30;;;3.85;;
76894;SDS011;65855;42.030;13.078;2023-05-10T09:45:41;10.27;;;4.47;;
76894;SDS011;65855;42.030;13.078;2023-05-10T09:48:07;9.02;;;3.88;;
76894;SDS011;65855;42.030;13.078;2023-05-10T09:50:33;9.38;;;4.25;;
76894;SDS011;65855;42.030;13.078;2023-05-10T09:52:59;8.73;;;3.80;;
76894;SDS011;65855;42.030;13.078;2023-05-10T09:58:03;9.15;;;3.78;;
76894;SDS011;65855;42.030;13.078;2023-05-10T10:00:35;8.82;;;3.50;;
76894;SDS011;65855;42.030;13.078;2023-05-10T10:03:05;7.95;;;3.55;;
76894;SDS011;65855;42.030;13.078;2023-05-10T10:05:32;8.82;;;3.55;;
76894;SDS011;65855;42.030;13.078;2023-05-10T10:07:59;9.93;;;4.40;;
76894;SDS011;65855;42.030;13.078;2023-05-10T10:10:25;8.38;;;4.03;;
76894;SDS011;65855;42.030;13.078;2023-05-10T10:12:52;8.52;;;4.18;;
76894;SDS011;65855;42.030;13.078;2023-05-10T10:15:18;10.13;;;4.10;;
76894;SDS011;65855;42.030;13.078;2023-05-10T10:17:45;8.88;;;3.67;;
76894;SDS011;65855;42.030;13.078;2023-05-10T10:20:11;6.53;;;3.05;;
76894;SDS011;65855;42.030;13.078;2023-05-10T10:22:37;8.30;;;3.70;;
76894;SDS011;65855;42.030;13.078;2023-05-10T10:25:04;8.27;;;3.88;;
76894;SDS011;65855;42.030;13.078;2023-05-10T10:30:16;7.85;;;3.53;;
76894;SDS011;65855;42.030;13.078;2023-05-10T10:35:33;7.88;;;3.35;;
76894;SDS011;65855;42.030;13.078;2023-05-10T10:38:00;7.55;;;3.72;;
76894;SDS011;65855;42.030;13.078;2023-05-10T10:40:29;7.63;;;3.60;;
76894;SDS011;65855;42.030;13.078;2023-05-10T10:43:21;7.70;;;3.65;;
76894;SDS011;65855;42.030;13.078;2023-05-10T10:48:35;7.60;;;3.20;;
76894;SDS011;65855;42.030;13.078;2023-05-10T10:51:00;8.65;;;3.28;;
76894;SDS011;65855;42.030;13.078;2023-05-10T10:53:26;9.27;;;3.65;;
76894;SDS011;65855;42.030;13.078;2023-05-10T10:56:08;8.60;;;3.63;;
76894;SDS011;65855;42.030;13.078;2023-05-10T10:58:38;7.15;;;2.95;;
76894;SDS011;65855;42.030;13.078;2023-05-10T11:01:14;7.63;;;3.40;;
76894;SDS011;65855;42.030;13.078;2023-05-10T11:04:27;6.75;;;3.33;;
76894;SDS011;65855;42.030;13.078;2023-05-10T11:06:34;8.63;;;3.47;;
76894;SDS011;65855;42.030;13.078;2023-05-10T11:11:34;6.20;;;2.50;;
76894;SDS011;65855;42.030;13.078;2023-05-10T11:14:04;6.93;;;2.67;;
76894;SDS011;65855;42.030;13.078;2023-05-10T11:16:40;7.05;;;2.97;;
76894;SDS011;65855;42.030;13.078;2023-05-10T11:19:16;7.63;;;3.58;;
76894;SDS011;65855;42.030;13.078;2023-05-10T11:21:47;7.95;;;3.47;;
76894;SDS011;65855;42.030;13.078;2023-05-10T11:24:18;9.88;;;3.50;;
76894;SDS011;65855;42.030;13.078;2023-05-10T11:29:10;6.43;;;2.75;;
76894;SDS011;65855;42.030;13.078;2023-05-10T11:31:44;7.75;;;3.38;;
76894;SDS011;65855;42.030;13.078;2023-05-10T11:34:11;6.97;;;3.45;;
76894;SDS011;65855;42.030;13.078;2023-05-10T11:36:50;5.40;;;2.10;;
76894;SDS011;65855;42.030;13.078;2023-05-10T11:39:18;5.50;;;1.67;;
76894;SDS011;65855;42.030;13.078;2023-05-10T11:41:46;6.03;;;2.03;;
76894;SDS011;65855;42.030;13.078;2023-05-10T11:44:13;5.95;;;1.60;;
76894;SDS011;65855;42.030;13.078;2023-05-10T11:46:39;5.22;;;1.63;;
76894;SDS011;65855;42.030;13.078;2023-05-10T11:49:04;5.72;;;1.77;;
76894;SDS011;65855;42.030;13.078;2023-05-10T11:51:33;5.70;;;1.85;;
76894;SDS011;65855;42.030;13.078;2023-05-10T11:54:00;6.20;;;2.05;;
76894;SDS011;65855;42.030;13.078;2023-05-10T11:56:26;5.13;;;2.70;;
76894;SDS011;65855;42.030;13.078;2023-05-10T11:58:55;5.47;;;2.20;;
76894;SDS011;65855;42.030;13.078;2023-05-10T12:01:22;7.90;;;2.22;;
76894;SDS011;65855;42.030;13.078;2023-05-10T12:03:49;5.15;;;1.77;;
76894;SDS011;65855;42.030;13.078;2023-05-10T12:06:15;4.43;;;1.77;;
76894;SDS011;65855;42.030;13.078;2023-05-10T12:08:45;4.60;;;1.50;;
76894;SDS011;65855;42.030;13.078;2023-05-10T12:11:11;5.85;;;1.85;;
76894;SDS011;65855;42.030;13.078;2023-05-10T12:13:41;5.63;;;1.25;;
76894;SDS011;65855;42.030;13.078;2023-05-10T12:18:42;4.82;;;1.50;;
76894;SDS011;65855;42.030;13.078;2023-05-10T12:21:09;4.60;;;1.65;;
76894;SDS011;65855;42.030;13.078;2023-05-10T12:23:38;5.38;;;1.60;;
76894;SDS011;65855;42.030;13.078;2023-05-10T12:26:04;4.47;;;1.75;;
76894;SDS011;65855;42.030;13.078;2023-05-10T12:28:31;5.00;;;1.50;;
76894;SDS011;65855;42.030;13.078;2023-05-10T12:30:57;4.07;;;1.40;;
76894;SDS011;65855;42.030;13.078;2023-05-10T12:33:24;4.70;;;1.40;;
76894;SDS011;65855;42.030;13.078;2023-05-10T12:35:50;4.30;;;1.73;;
76894;SDS011;65855;42.030;13.078;2023-05-10T12:40:55;5.32;;;1.92;;
76894;SDS011;65855;42.030;13.078;2023-05-10T12:43:21;5.18;;;1.75;;
76894;SDS011;65855;42.030;13.078;2023-05-10T12:45:47;5.13;;;1.90;;
76894;SDS011;65855;42.030;13.078;2023-05-10T12:48:14;5.60;;;2.10;;
76894;SDS011;65855;42.030;13.078;2023-05-10T12:50:40;4.78;;;1.75;;
76894;SDS011;65855;42.030;13.078;2023-05-10T12:53:05;5.25;;;2.05;;
76894;SDS011;65855;42.030;13.078;2023-05-10T12:55:31;4.15;;;1.85;;
76894;SDS011;65855;42.030;13.078;2023-05-10T12:57:56;4.45;;;1.45;;
76894;SDS011;65855;42.030;13.078;2023-05-10T13:00:22;6.30;;;2.30;;
76894;SDS011;65855;42.030;13.078;2023-05-10T13:02:47;5.90;;;2.38;;
76894;SDS011;65855;42.030;13.078;2023-05-10T13:05:13;5.85;;;2.20;;
76894;SDS011;65855;42.030;13.078;2023-05-10T13:07:38;4.82;;;1.50;;
76894;SDS011;65855;42.030;13.078;2023-05-10T13:10:04;5.18;;;1.88;;
76894;SDS011;65855;42.030;13.078;2023-05-10T13:12:31;5.18;;;1.83;;
76894;SDS011;65855;42.030;13.078;2023-05-10T13:14:56;4.93;;;2.22;;
76894;SDS011;65855;42.030;13.078;2023-05-10T13:17:22;6.20;;;2.45;;
76894;SDS011;65855;42.030;13.078;2023-05-10T13:19:47;5.82;;;2.42;;
76894;SDS011;65855;42.030;13.078;2023-05-10T13:22:13;2.20;;;1.00;;
76894;SDS011;65855;42.030;13.078;2023-05-10T13:24:38;7.45;;;2.53;;
76894;SDS011;65855;42.030;13.078;2023-05-10T13:27:04;5.03;;;1.65;;
76894;SDS011;65855;42.030;13.078;2023-05-10T13:29:31;7.55;;;2.33;;
76894;SDS011;65855;42.030;13.078;2023-05-10T13:31:56;6.40;;;3.22;;
76894;SDS011;65855;42.030;13.078;2023-05-10T13:34:24;6.93;;;3.08;;
76894;SDS011;65855;42.030;13.078;2023-05-10T13:36:49;6.22;;;2.15;;
76894;SDS011;65855;42.030;13.078;2023-05-10T13:39:15;7.07;;;2.50;;
76894;SDS011;65855;42.030;13.078;2023-05-10T13:41:40;6.43;;;2.65;;
76894;SDS011;65855;42.030;13.078;2023-05-10T13:44:06;7.85;;;2.83;;
76894;SDS011;65855;42.030;13.078;2023-05-10T13:46:32;6.78;;;2.13;;
76894;SDS011;65855;42.030;13.078;2023-05-10T13:48:57;4.60;;;1.88;;
76894;SDS011;65855;42.030;13.078;2023-05-10T13:51:23;6.85;;;2.17;;
76894;SDS011;65855;42.030;13.078;2023-05-10T13:53:48;6.00;;;2.38;;
76894;SDS011;65855;42.030;13.078;2023-05-10T13:56:14;5.25;;;1.80;;
76894;SDS011;65855;42.030;13.078;2023-05-10T13:58:39;5.30;;;1.75;;
76894;SDS011;65855;42.030;13.078;2023-05-10T14:01:05;4.95;;;1.38;;
76894;SDS011;65855;42.030;13.078;2023-05-10T14:03:30;5.18;;;2.22;;
76894;SDS011;65855;42.030;13.078;2023-05-10T14:05:56;3.47;;;1.50;;
76894;SDS011;65855;42.030;13.078;2023-05-10T14:08:21;3.75;;;1.42;;
76894;SDS011;65855;42.030;13.078;2023-05-10T14:10:47;4.47;;;1.48;;
76894;SDS011;65855;42.030;13.078;2023-05-10T14:13:13;5.60;;;2.00;;
76894;SDS011;65855;42.030;13.078;2023-05-10T14:15:40;5.75;;;1.25;;
76894;SDS011;65855;42.030;13.078;2023-05-10T14:18:06;4.43;;;1.55;;
76894;SDS011;65855;42.030;13.078;2023-05-10T14:20:31;4.40;;;1.55;;
76894;SDS011;65855;42.030;13.078;2023-05-10T14:22:59;4.28;;;1.50;;
76894;SDS011;65855;42.030;13.078;2023-05-10T14:25:25;4.03;;;1.40;;
76894;SDS011;65855;42.030;13.078;2023-05-10T14:27:50;2.70;;;1.20;;
76894;SDS011;65855;42.030;13.078;2023-05-10T14:30:16;3.42;;;1.08;;
76894;SDS011;65855;42.030;13.078;2023-05-10T14:32:41;4.47;;;1.02;;
76894;SDS011;65855;42.030;13.078;2023-05-10T14:35:07;2.65;;;0.82;;
76894;SDS011;65855;42.030;13.078;2023-05-10T14:37:33;3.13;;;0.98;;
76894;SDS011;65855;42.030;13.078;2023-05-10T14:39:58;3.42;;;1.38;;
76894;SDS011;65855;42.030;13.078;2023-05-10T14:42:24;8.20;;;2.22;;
76894;SDS011;65855;42.030;13.078;2023-05-10T14:44:49;5.15;;;2.20;;
76894;SDS011;65855;42.030;13.078;2023-05-10T14:47:14;5.57;;;1.83;;
76894;SDS011;65855;42.030;13.078;2023-05-10T14:49:40;6.35;;;1.42;;
76894;SDS011;65855;42.030;13.078;2023-05-10T14:52:06;5.63;;;1.77;;
76894;SDS011;65855;42.030;13.078;2023-05-10T14:54:31;3.97;;;1.33;;
76894;SDS011;65855;42.030;13.078;2023-05-10T14:56:58;4.80;;;1.48;;
76894;SDS011;65855;42.030;13.078;2023-05-10T14:59:24;3.08;;;1.15;;
76894;SDS011;65855;42.030;13.078;2023-05-10T15:01:49;3.88;;;1.38;;
76894;SDS011;65855;42.030;13.078;2023-05-10T15:04:15;5.28;;;1.27;;
76894;SDS011;65855;42.030;13.078;2023-05-10T15:06:41;3.97;;;1.02;;
76894;SDS011;65855;42.030;13.078;2023-05-10T15:09:06;4.72;;;1.45;;